Time;durP1;ratioP1;P1;durP2;ratioP2;P2;SDS_P1;SDS_P2;PMS_P1;PMS_P2;Temp;Humidity;BMP_temperature;BMP_pressure;BME280_temperature;BME280_humidity;BME280_pressure;Samples;Min_cycle;Max_cycle;Signal;HPM_P1;HPM_P2
2021/09/06 00:01:01;;;;;;;58.37;2.70;;;14.00;1.00;;;;;;5075227;28;20526;-70
2021/09/06 00:03:28;;;;;;;58.67;2.97;;;13.90;1.00;;;;;;5074862;28;20562;-70
2021/09/06 00:05:56;;;;;;;58.17;3.00;;;13.90;1.00;;;;;;5075075;28;20493;-70
2021/09/06 00:08:24;;;;;;;58.43;3.00;;;13.90;1.00;;;;;;5075186;28;20450;-70
2021/09/06 00:11:02;;;;;;;58.67;2.80;;;13.90;1.00;;;;;;5075809;28;20844;-71
2021/09/06 00:13:29;;;;;;;58.67;2.90;;;13.90;1.00;;;;;;5076790;28;20473;-71
2021/09/06 00:15:56;;;;;;;58.30;2.50;;;13.90;1.00;;;;;;5075617;28;20546;-70
2021/09/06 00:18:25;;;;;;;58.10;2.87;;;13.90;1.00;;;;;;5074721;28;20461;-70
2021/09/06 00:20:52;;;;;;;58.10;2.50;;;13.90;1.00;;;;;;5075079;28;20459;-71
2021/09/06 00:23:19;;;;;;;58.63;2.93;;;13.90;1.00;;;;;;5074330;28;20471;-71
2021/09/06 00:25:48;;;;;;;58.23;2.60;;;13.90;1.00;;;;;;5074673;28;20505;-71
2021/09/06 00:28:15;;;;;;;59.10;3.27;;;13.90;1.00;;;;;;5074821;28;20479;-71
2021/09/06 00:30:42;;;;;;;58.80;3.53;;;13.90;1.00;;;;;;5074683;28;20450;-71
2021/09/06 00:33:09;;;;;;;58.13;2.80;;;13.90;1.00;;;;;;5074298;28;20468;-70
2021/09/06 00:35:36;;;;;;;58.77;3.00;;;13.80;1.00;;;;;;5074487;28;20549;-71
2021/09/06 00:38:04;;;;;;;60.23;3.77;;;13.80;1.00;;;;;;5074501;28;20449;-71
2021/09/06 00:40:31;;;;;;;58.57;2.80;;;13.70;1.00;;;;;;5074352;28;20471;-71
2021/09/06 00:42:59;;;;;;;58.63;3.10;;;13.60;1.00;;;;;;5073943;28;20469;-71
2021/09/06 00:45:26;;;;;;;58.50;3.10;;;13.60;1.00;;;;;;5074188;28;20486;-71
2021/09/06 00:47:53;;;;;;;58.57;2.80;;;13.60;1.00;;;;;;5074209;28;20829;-70
2021/09/06 00:50:20;;;;;;;59.13;2.90;;;13.50;1.00;;;;;;5073966;28;20554;-71
2021/09/06 00:52:48;;;;;;;58.43;2.60;;;13.50;1.00;;;;;;5073967;28;20570;-71
2021/09/06 00:55:17;;;;;;;59.93;3.00;;;13.50;1.00;;;;;;5073964;28;20998;-71
2021/09/06 00:57:44;;;;;;;58.77;2.90;;;13.50;1.00;;;;;;5074119;28;20483;-71
2021/09/06 01:00:16;;;;;;;58.57;2.90;;;13.50;1.00;;;;;;5074176;28;20798;-70
2021/09/06 01:02:43;;;;;;;58.43;2.70;;;13.50;1.00;;;;;;5073748;28;20563;-71
2021/09/06 01:05:12;;;;;;;58.57;3.07;;;13.50;1.00;;;;;;5073790;28;20589;-70
2021/09/06 01:07:40;;;;;;;58.87;3.20;;;13.40;1.00;;;;;;5073837;28;20449;-70
2021/09/06 01:10:10;;;;;;;58.50;2.70;;;13.40;1.00;;;;;;5073537;28;20447;-70
2021/09/06 01:12:37;;;;;;;58.70;3.07;;;13.30;1.00;;;;;;5073716;28;20562;-70
2021/09/06 01:15:06;;;;;;;58.97;3.43;;;13.30;1.00;;;;;;5073667;28;20445;-70
2021/09/06 01:17:35;;;;;;;58.10;2.80;;;13.30;1.00;;;;;;5073539;28;20615;-71
2021/09/06 01:20:02;;;;;;;58.60;3.00;;;13.30;1.00;;;;;;5073357;28;20985;-70
2021/09/06 01:22:28;;;;;;;58.67;3.00;;;13.20;1.00;;;;;;5073604;28;20471;-70
2021/09/06 01:24:55;;;;;;;58.70;2.80;;;13.20;1.00;;;;;;5073507;28;20451;-70
2021/09/06 01:27:24;;;;;;;58.97;4.03;;;13.20;1.00;;;;;;5073393;28;20542;-70
2021/09/06 01:29:52;;;;;;;60.40;4.27;;;13.20;1.00;;;;;;5073194;28;20884;-70
2021/09/06 01:32:19;;;;;;;58.50;2.70;;;13.20;1.00;;;;;;5073488;28;20868;-70
2021/09/06 01:34:46;;;;;;;58.67;2.80;;;13.20;1.00;;;;;;5073520;28;20845;-70
2021/09/06 01:37:12;;;;;;;58.73;2.73;;;13.20;1.00;;;;;;5073144;28;20491;-70
2021/09/06 01:39:39;;;;;;;58.57;2.93;;;13.20;1.00;;;;;;5073055;28;20951;-71
2021/09/06 01:42:06;;;;;;;58.73;2.97;;;13.20;1.00;;;;;;5073051;28;20538;-71
2021/09/06 01:44:34;;;;;;;58.40;2.70;;;13.10;1.00;;;;;;5072554;28;20526;-70
2021/09/06 01:47:01;;;;;;;58.70;2.67;;;13.10;1.00;;;;;;5073225;28;20482;-70
2021/09/06 01:49:28;;;;;;;58.57;3.00;;;13.00;1.00;;;;;;5072765;28;21026;-70
2021/09/06 01:51:55;;;;;;;58.53;3.00;;;13.00;1.00;;;;;;5072968;28;20555;-70
2021/09/06 01:54:22;;;;;;;59.83;4.43;;;13.00;1.00;;;;;;5071612;28;20505;-71
2021/09/06 01:56:49;;;;;;;58.57;2.70;;;13.00;1.00;;;;;;5073118;28;20443;-70
2021/09/06 01:59:15;;;;;;;58.27;2.60;;;13.00;1.00;;;;;;5072638;28;20531;-70
2021/09/06 02:01:44;;;;;;;58.43;3.53;;;13.00;1.00;;;;;;5072805;28;20801;-69
2021/09/06 02:04:10;;;;;;;58.33;2.60;;;13.00;1.00;;;;;;5072482;28;20479;-70
2021/09/06 02:06:37;;;;;;;58.27;2.60;;;13.00;1.00;;;;;;5072537;28;20489;-70
2021/09/06 02:09:04;;;;;;;58.77;3.30;;;13.00;1.00;;;;;;5072448;28;20542;-70
2021/09/06 02:11:31;;;;;;;59.10;3.20;;;13.00;1.00;;;;;;5072839;28;20482;-71
2021/09/06 02:13:59;;;;;;;58.93;3.37;;;12.90;1.00;;;;;;5072718;28;20502;-71
2021/09/06 02:16:25;;;;;;;58.37;2.90;;;12.90;1.00;;;;;;5072674;28;20447;-70
2021/09/06 02:18:54;;;;;;;58.87;3.63;;;12.80;1.00;;;;;;5072484;28;20449;-70
2021/09/06 02:21:21;;;;;;;58.50;2.77;;;12.70;1.00;;;;;;5072401;28;20627;-71
2021/09/06 02:23:47;;;;;;;58.27;3.00;;;12.70;1.00;;;;;;5072434;28;20469;-70
2021/09/06 02:26:14;;;;;;;58.17;2.60;;;12.60;1.00;;;;;;5072108;28;20490;-71
2021/09/06 02:28:41;;;;;;;58.57;2.73;;;12.60;1.00;;;;;;5072400;28;20447;-71
2021/09/06 02:31:08;;;;;;;58.47;2.80;;;12.60;1.00;;;;;;5072405;28;20530;-70
2021/09/06 02:33:35;;;;;;;59.50;3.50;;;12.60;1.00;;;;;;5072153;28;20963;-71
2021/09/06 02:36:03;;;;;;;59.60;5.00;;;12.60;1.00;;;;;;5072401;28;20471;-70
2021/09/06 02:38:30;;;;;;;58.33;2.57;;;12.50;1.00;;;;;;5072037;28;20987;-70
2021/09/06 02:40:57;;;;;;;58.70;2.80;;;12.50;1.00;;;;;;5071936;28;20486;-70
2021/09/06 02:43:24;;;;;;;58.87;3.10;;;12.40;1.00;;;;;;5072100;28;20842;-70
2021/09/06 02:45:51;;;;;;;58.73;2.90;;;12.50;1.00;;;;;;5072033;28;20485;-70
2021/09/06 02:48:18;;;;;;;58.60;3.00;;;12.40;1.00;;;;;;5071962;28;20485;-70
2021/09/06 02:50:44;;;;;;;58.50;2.70;;;12.40;1.00;;;;;;5071769;28;20482;-69
2021/09/06 02:53:12;;;;;;;58.20;2.97;;;12.40;1.00;;;;;;5072078;28;20477;-71
2021/09/06 02:55:39;;;;;;;58.57;2.80;;;12.30;1.00;;;;;;5072035;28;20800;-71
2021/09/06 02:58:06;;;;;;;58.63;3.07;;;12.30;1.00;;;;;;5071891;28;20447;-70
2021/09/06 03:00:33;;;;;;;58.67;3.07;;;12.20;1.00;;;;;;5071705;28;20538;-70
2021/09/06 03:03:00;;;;;;;58.93;2.90;;;12.20;1.00;;;;;;5071589;28;20571;-70
2021/09/06 03:05:27;;;;;;;58.70;3.00;;;12.20;1.00;;;;;;5071889;28;20482;-70
2021/09/06 03:07:53;;;;;;;58.53;2.97;;;12.20;1.00;;;;;;5071822;28;20543;-70
2021/09/06 03:10:22;;;;;;;58.67;3.00;;;12.10;1.00;;;;;;5071890;28;20490;-70
2021/09/06 03:12:48;;;;;;;59.57;3.53;;;12.10;1.00;;;;;;5071598;28;20551;-70
2021/09/06 03:15:15;;;;;;;58.50;2.77;;;12.00;1.00;;;;;;5071776;28;20482;-71
2021/09/06 03:17:42;;;;;;;58.63;3.07;;;12.10;1.00;;;;;;5071957;28;20442;-70
2021/09/06 03:20:10;;;;;;;58.47;2.90;;;12.00;1.00;;;;;;5071618;28;20526;-71
2021/09/06 03:22:37;;;;;;;58.40;2.80;;;12.00;1.00;;;;;;5071879;28;20462;-70
2021/09/06 03:25:04;;;;;;;58.70;2.80;;;12.00;1.00;;;;;;5072075;28;20532;-71
2021/09/06 03:27:32;;;;;;;58.37;2.90;;;12.00;1.00;;;;;;5071544;28;20585;-70
2021/09/06 03:29:59;;;;;;;58.47;2.93;;;12.00;1.00;;;;;;5071410;28;20443;-71
2021/09/06 03:32:26;;;;;;;58.37;3.00;;;12.00;1.00;;;;;;5071717;28;20485;-71
2021/09/06 03:34:53;;;;;;;61.43;4.90;;;11.90;1.00;;;;;;5071931;28;20490;-70
2021/09/06 03:37:20;;;;;;;58.70;3.20;;;11.90;1.00;;;;;;5071662;28;20885;-71
2021/09/06 03:39:47;;;;;;;58.57;2.57;;;11.90;1.00;;;;;;5071431;28;20546;-71
2021/09/06 03:42:14;;;;;;;58.33;3.20;;;11.90;1.00;;;;;;5071556;28;20512;-71
2021/09/06 03:44:42;;;;;;;58.37;2.90;;;11.90;1.00;;;;;;5071486;28;20490;-71
2021/09/06 03:47:09;;;;;;;58.30;3.10;;;11.80;1.00;;;;;;5071287;28;20482;-71
2021/09/06 03:49:36;;;;;;;58.33;2.60;;;11.80;1.00;;;;;;5071179;28;20486;-71
2021/09/06 03:52:03;;;;;;;58.73;3.20;;;11.70;1.00;;;;;;5071395;28;20536;-71
2021/09/06 03:54:30;;;;;;;58.60;3.00;;;11.70;1.00;;;;;;5071384;28;20534;-70
2021/09/06 03:56:57;;;;;;;58.23;2.70;;;11.70;1.00;;;;;;5071288;28;20533;-71
2021/09/06 03:59:24;;;;;;;58.33;2.50;;;11.70;1.00;;;;;;5071043;28;20538;-70
2021/09/06 04:01:52;;;;;;;58.37;2.80;;;11.70;1.00;;;;;;5071473;28;20910;-71
2021/09/06 04:04:19;;;;;;;58.40;2.77;;;11.70;1.00;;;;;;5070958;28;21073;-71
2021/09/06 04:06:47;;;;;;;58.37;2.67;;;11.70;1.00;;;;;;5071303;28;20565;-71
2021/09/06 04:09:14;;;;;;;58.80;3.10;;;11.70;1.00;;;;;;5071204;28;20455;-71
2021/09/06 04:11:41;;;;;;;58.90;3.00;;;11.70;1.00;;;;;;5071180;28;20528;-71
2021/09/06 04:14:12;;;;;;;58.67;3.07;;;11.70;1.00;;;;;;5071041;28;20469;-71
2021/09/06 04:16:39;;;;;;;58.43;2.60;;;11.60;1.00;;;;;;5072372;28;20525;-71
2021/09/06 04:19:07;;;;;;;58.47;2.70;;;11.50;1.00;;;;;;5074752;28;20449;-69
2021/09/06 04:21:34;;;;;;;58.77;2.90;;;11.50;1.00;;;;;;5074814;28;20445;-71
2021/09/06 04:24:01;;;;;;;58.17;2.80;;;11.50;1.00;;;;;;5074926;28;20475;-71
2021/09/06 04:26:27;;;;;;;59.00;3.13;;;11.50;1.00;;;;;;5074338;28;20490;-71
2021/09/06 04:28:54;;;;;;;58.47;2.60;;;11.40;1.00;;;;;;5074571;28;20456;-71
2021/09/06 04:31:21;;;;;;;58.63;2.80;;;11.30;1.00;;;;;;5074855;28;20539;-71
2021/09/06 04:33:48;;;;;;;58.57;2.60;;;11.40;1.00;;;;;;5074475;28;20841;-71
2021/09/06 04:36:16;;;;;;;58.47;2.67;;;11.30;1.00;;;;;;5074444;28;20881;-71
2021/09/06 04:38:43;;;;;;;58.37;2.70;;;11.30;1.00;;;;;;5074342;28;20538;-71
2021/09/06 04:41:10;;;;;;;58.60;3.00;;;11.20;1.00;;;;;;5074153;28;20530;-71
2021/09/06 04:43:36;;;;;;;58.47;2.60;;;11.20;1.00;;;;;;5074321;28;20557;-70
2021/09/06 04:46:03;;;;;;;59.10;2.97;;;11.20;1.00;;;;;;5074401;28;20530;-71
2021/09/06 04:48:30;;;;;;;58.63;2.70;;;11.10;1.00;;;;;;5074079;28;20447;-71
2021/09/06 04:50:57;;;;;;;59.13;3.00;;;11.10;1.00;;;;;;5074305;28;20493;-70
2021/09/06 04:53:25;;;;;;;58.63;3.00;;;11.10;1.00;;;;;;5074029;28;20521;-71
2021/09/06 04:55:52;;;;;;;58.27;2.97;;;11.20;1.00;;;;;;5077266;28;20510;-71
2021/09/06 04:58:19;;;;;;;58.53;2.80;;;11.20;1.00;;;;;;5079614;28;20546;-71
2021/09/06 05:00:46;;;;;;;58.47;2.70;;;11.20;1.00;;;;;;5079168;28;20514;-71
2021/09/06 05:03:12;;;;;;;58.33;2.77;;;11.20;1.00;;;;;;5078086;28;20505;-71
2021/09/06 05:05:39;;;;;;;58.57;2.80;;;11.20;1.00;;;;;;5074936;28;20479;-71
2021/09/06 05:08:06;;;;;;;58.53;2.90;;;11.20;1.00;;;;;;5073958;28;20572;-71
2021/09/06 05:10:34;;;;;;;59.23;3.87;;;11.20;1.00;;;;;;5073777;28;20538;-71
2021/09/06 05:13:01;;;;;;;58.73;3.20;;;11.20;1.00;;;;;;5073756;28;21054;-70
2021/09/06 05:15:28;;;;;;;58.47;2.80;;;11.20;1.00;;;;;;5073596;28;21034;-71
2021/09/06 05:17:55;;;;;;;58.93;3.37;;;11.20;1.00;;;;;;5073578;28;20439;-71
2021/09/06 05:20:22;;;;;;;58.37;2.70;;;11.20;1.00;;;;;;5073473;28;20870;-71
2021/09/06 05:22:49;;;;;;;59.20;3.67;;;11.20;1.00;;;;;;5073348;28;20550;-71
2021/09/06 05:25:16;;;;;;;58.67;2.87;;;11.20;1.00;;;;;;5073486;28;20973;-71
2021/09/06 05:27:45;;;;;;;58.63;2.70;;;11.20;1.00;;;;;;5073585;28;20482;-71
2021/09/06 05:30:12;;;;;;;58.27;2.77;;;11.20;1.00;;;;;;5073587;28;20473;-71
2021/09/06 05:32:39;;;;;;;58.50;2.87;;;11.30;1.00;;;;;;5073275;28;20475;-71
2021/09/06 05:35:07;;;;;;;58.57;2.70;;;11.30;1.00;;;;;;5073207;28;20443;-71
2021/09/06 05:37:34;;;;;;;59.47;2.90;;;11.30;1.00;;;;;;5073421;28;20450;-71
2021/09/06 05:40:02;;;;;;;58.57;2.90;;;11.30;1.00;;;;;;5073310;28;20490;-70
2021/09/06 05:42:29;;;;;;;58.83;2.97;;;11.40;1.00;;;;;;5073375;28;20459;-71
2021/09/06 05:44:57;;;;;;;58.67;2.77;;;11.40;1.00;;;;;;5073221;28;20462;-71
2021/09/06 05:47:24;;;;;;;58.43;2.93;;;11.40;1.00;;;;;;5072915;28;20561;-70
2021/09/06 05:49:51;;;;;;;58.47;3.10;;;11.50;1.00;;;;;;5073383;28;20555;-71
2021/09/06 05:52:18;;;;;;;58.60;2.80;;;11.50;1.00;;;;;;5073153;28;20497;-71
2021/09/06 05:54:45;;;;;;;58.57;3.33;;;11.60;1.00;;;;;;5073487;28;20534;-70
2021/09/06 05:57:12;;;;;;;58.53;3.10;;;11.60;1.00;;;;;;5073169;28;20522;-71
2021/09/06 05:59:39;;;;;;;58.07;2.70;;;11.70;1.00;;;;;;5072807;28;20541;-71
2021/09/06 06:02:07;;;;;;;58.63;2.80;;;11.70;1.00;;;;;;5072944;28;20494;-71
2021/09/06 06:04:34;;;;;;;58.27;2.70;;;11.70;1.00;;;;;;5072554;28;20459;-71
2021/09/06 06:07:01;;;;;;;58.33;2.70;;;11.80;1.00;;;;;;5072537;28;20569;-71
2021/09/06 06:09:28;;;;;;;58.43;2.80;;;11.80;1.00;;;;;;5072778;28;20451;-71
2021/09/06 06:11:55;;;;;;;58.17;2.70;;;11.90;1.00;;;;;;5072698;28;20538;-71
2021/09/06 06:14:22;;;;;;;58.37;2.80;;;11.90;1.00;;;;;;5072490;28;20979;-71
2021/09/06 06:16:48;;;;;;;58.53;2.97;;;11.90;1.00;;;;;;5072340;28;20447;-71
2021/09/06 06:19:16;;;;;;;58.90;2.60;;;11.90;1.00;;;;;;5072445;28;20454;-70
2021/09/06 06:21:43;;;;;;;58.17;2.70;;;11.90;1.00;;;;;;5072549;28;20533;-70
2021/09/06 06:24:10;;;;;;;58.27;3.00;;;11.90;1.00;;;;;;5072734;28;20466;-71
2021/09/06 06:26:37;;;;;;;58.17;2.40;;;12.00;1.00;;;;;;5072084;28;21018;-71
2021/09/06 06:29:04;;;;;;;58.13;2.60;;;12.00;1.00;;;;;;5072403;28;20482;-71
2021/09/06 06:31:31;;;;;;;58.57;2.83;;;12.10;1.00;;;;;;5072174;28;20475;-71
2021/09/06 06:33:57;;;;;;;58.67;2.90;;;12.10;1.00;;;;;;5072075;28;20550;-70
2021/09/06 06:36:26;;;;;;;58.13;2.60;;;12.10;1.00;;;;;;5072299;28;20563;-71
2021/09/06 06:38:53;;;;;;;58.47;2.70;;;12.20;1.00;;;;;;5071850;28;20813;-71
2021/09/06 06:41:20;;;;;;;58.40;2.80;;;12.30;1.00;;;;;;5072337;28;20490;-71
2021/09/06 06:43:47;;;;;;;58.27;2.90;;;12.40;1.00;;;;;;5071936;28;20495;-71
2021/09/06 06:46:14;;;;;;;57.87;2.53;;;12.40;1.00;;;;;;5071981;28;20932;-70
2021/09/06 06:48:41;;;;;;;58.87;3.63;;;12.50;1.00;;;;;;5072049;28;20482;-71
2021/09/06 06:51:08;;;;;;;58.23;2.83;;;12.60;1.00;;;;;;5072052;28;20447;-70
2021/09/06 06:53:37;;;;;;;58.00;3.00;;;12.70;1.00;;;;;;5071963;28;20555;-70
2021/09/06 06:56:04;;;;;;;58.70;3.50;;;12.80;1.00;;;;;;5071939;28;20530;-71
2021/09/06 06:58:31;;;;;;;58.10;2.87;;;12.80;1.00;;;;;;5071807;28;20470;-70
2021/09/06 07:00:58;;;;;;;58.33;2.70;;;13.00;1.00;;;;;;5071792;28;20453;-71
2021/09/06 07:03:25;;;;;;;58.70;3.27;;;13.00;1.00;;;;;;5071781;28;20532;-71
2021/09/06 07:05:52;;;;;;;58.87;3.00;;;13.10;1.00;;;;;;5071799;28;20451;-72
2021/09/06 07:08:19;;;;;;;57.97;2.80;;;13.20;1.00;;;;;;5071742;28;20522;-71
2021/09/06 07:10:47;;;;;;;58.13;2.80;;;13.30;1.00;;;;;;5071634;28;20447;-71
2021/09/06 07:13:14;;;;;;;57.90;2.80;;;13.40;1.00;;;;;;5071568;28;20482;-71
2021/09/06 07:15:41;;;;;;;58.27;2.77;;;13.40;1.00;;;;;;5071981;28;20539;-71
2021/09/06 07:18:08;;;;;;;58.83;4.00;;;13.50;1.00;;;;;;5071852;28;20442;-71
2021/09/06 07:20:36;;;;;;;58.40;2.70;;;13.60;1.00;;;;;;5071622;28;20447;-71
2021/09/06 07:23:04;;;;;;;58.20;2.73;;;13.70;1.00;;;;;;5071653;28;20847;-71
2021/09/06 07:25:31;;;;;;;58.53;3.13;;;13.80;1.00;;;;;;5071452;28;20448;-70
2021/09/06 07:27:59;;;;;;;58.57;2.73;;;14.00;1.00;;;;;;5071528;28;20571;-71
2021/09/06 07:30:27;;;;;;;58.30;3.30;;;14.10;1.00;;;;;;5071754;28;20817;-72
2021/09/06 07:32:56;;;;;;;58.40;2.83;;;14.20;1.00;;;;;;5071595;28;20831;-71
2021/09/06 07:35:22;;;;;;;59.53;3.47;;;14.30;1.00;;;;;;5071656;28;20474;-72
2021/09/06 07:37:49;;;;;;;58.13;2.93;;;14.40;1.00;;;;;;5071409;28;20987;-71
2021/09/06 07:40:16;;;;;;;58.40;2.60;;;14.60;1.00;;;;;;5071218;28;20534;-71
2021/09/06 07:42:43;;;;;;;58.60;2.93;;;14.70;1.00;;;;;;5071608;28;20849;-70
2021/09/06 07:45:12;;;;;;;58.07;2.97;;;14.80;1.00;;;;;;5071690;28;20880;-71
2021/09/06 07:47:39;;;;;;;58.20;2.83;;;14.90;1.00;;;;;;5071439;28;20490;-71
2021/09/06 07:50:08;;;;;;;57.60;2.77;;;15.10;1.00;;;;;;5071612;28;20542;-72
2021/09/06 07:52:35;;;;;;;58.40;3.10;;;15.20;1.00;;;;;;5073835;28;20471;-71
2021/09/06 07:55:02;;;;;;;60.80;3.90;;;15.40;1.00;;;;;;5075151;28;20490;-71
2021/09/06 07:57:29;;;;;;;58.63;3.27;;;15.50;1.00;;;;;;5075263;28;20526;-72
2021/09/06 07:59:56;;;;;;;58.70;4.00;;;15.60;1.00;;;;;;5074981;28;20542;-69
2021/09/06 08:02:24;;;;;;;58.67;3.20;;;15.70;1.00;;;;;;5074850;28;20538;-69
2021/09/06 08:04:51;;;;;;;58.23;3.43;;;15.90;1.00;;;;;;5075352;28;20493;-69
2021/09/06 08:07:19;;;;;;;58.77;3.50;;;16.00;1.00;;;;;;5075072;28;20490;-69
2021/09/06 08:09:46;;;;;;;58.37;3.30;;;16.20;1.00;;;;;;5075039;28;20449;-69
2021/09/06 08:12:12;;;;;;;58.27;3.00;;;16.30;1.00;;;;;;5074976;28;20537;-68
2021/09/06 08:14:39;;;;;;;58.30;3.10;;;16.50;1.00;;;;;;5074928;28;20865;-69
2021/09/06 08:17:06;;;;;;;58.90;2.93;;;16.60;1.00;;;;;;5074739;28;20542;-69
2021/09/06 08:19:34;;;;;;;59.20;3.80;;;16.80;1.00;;;;;;5074582;28;20444;-70
2021/09/06 08:22:01;;;;;;;58.70;3.10;;;16.90;1.00;;;;;;5074611;28;20472;-70
2021/09/06 08:24:28;;;;;;;58.17;2.93;;;17.10;1.00;;;;;;5074946;28;20448;-70
2021/09/06 08:26:55;;;;;;;58.33;2.77;;;17.30;1.00;;;;;;5074818;28;20446;-69
2021/09/06 08:29:22;;;;;;;57.90;2.80;;;17.50;1.00;;;;;;5074350;28;20495;-70
2021/09/06 08:31:48;;;;;;;58.60;3.93;;;17.60;1.00;;;;;;5074519;28;20460;-69
2021/09/06 08:34:15;;;;;;;58.40;2.90;;;17.80;1.00;;;;;;5074318;28;20503;-71
2021/09/06 08:36:44;;;;;;;58.50;2.70;;;17.90;1.00;;;;;;5074489;28;20533;-70
2021/09/06 08:39:10;;;;;;;58.40;2.97;;;18.10;1.00;;;;;;5074476;28;20533;-70
2021/09/06 08:41:37;;;;;;;58.30;3.13;;;18.20;1.00;;;;;;5074412;28;20546;-71
2021/09/06 08:44:05;;;;;;;58.00;2.90;;;18.40;1.00;;;;;;5074118;28;21005;-69
2021/09/06 08:46:32;;;;;;;58.70;3.33;;;18.60;1.00;;;;;;5074459;28;20498;-70
2021/09/06 08:48:59;;;;;;;58.37;2.70;;;18.70;1.00;;;;;;5073830;28;20513;-70
2021/09/06 08:51:26;;;;;;;58.47;2.73;;;18.90;1.00;;;;;;5074298;28;20537;-70
2021/09/06 08:53:54;;;;;;;58.40;2.50;;;19.10;1.00;;;;;;5074179;28;20476;-71
2021/09/06 08:56:22;;;;;;;58.00;2.80;;;19.30;1.00;;;;;;5074044;28;20489;-71
2021/09/06 08:58:49;;;;;;;58.03;2.50;;;19.50;1.00;;;;;;5073869;28;20449;-71
2021/09/06 09:01:16;;;;;;;58.07;3.00;;;19.80;1.00;;;;;;5073860;28;20454;-70
2021/09/06 09:03:43;;;;;;;57.90;2.53;;;20.10;1.00;;;;;;5073261;28;20495;-71
2021/09/06 09:06:09;;;;;;;58.50;3.17;;;20.30;1.00;;;;;;5073980;28;20479;-70
2021/09/06 09:08:38;;;;;;;58.47;2.90;;;20.50;1.00;;;;;;5074065;28;20519;-71
2021/09/06 09:11:08;;;;;;;58.50;3.07;;;20.70;1.00;;;;;;5073707;28;20807;-71
2021/09/06 09:13:38;;;;;;;58.40;2.93;;;20.90;1.00;;;;;;5074106;28;20553;-71
2021/09/06 09:16:06;;;;;;;58.87;3.90;;;21.10;1.00;;;;;;5074108;28;20868;-71
2021/09/06 09:18:36;;;;;;;58.37;2.87;;;21.30;1.00;;;;;;5073858;28;20445;-71
2021/09/06 09:21:04;;;;;;;58.37;3.20;;;21.40;1.00;;;;;;5073349;28;20461;-71
2021/09/06 09:23:39;;;;;;;58.60;3.20;;;21.60;1.00;;;;;;5073766;28;20473;-69
2021/09/06 09:26:08;;;;;;;58.70;2.80;;;21.80;1.00;;;;;;5073837;28;20791;-69
2021/09/06 09:28:39;;;;;;;58.17;2.73;;;22.10;1.00;;;;;;5073286;28;20577;-69
2021/09/06 09:31:10;;;;;;;58.20;2.83;;;22.30;1.00;;;;;;5073425;28;20448;-69
2021/09/06 09:33:47;;;;;;;58.30;2.87;;;22.50;1.00;;;;;;5073423;28;20830;-69
2021/09/06 09:36:14;;;;;;;58.40;2.80;;;22.80;1.00;;;;;;5073256;28;20458;-69
2021/09/06 09:38:41;;;;;;;59.00;4.13;;;23.00;1.00;;;;;;5073233;28;20447;-69
2021/09/06 09:41:17;;;;;;;58.20;3.00;;;23.20;1.00;;;;;;5072968;28;20443;-70
2021/09/06 09:43:44;;;;;;;58.90;2.73;;;23.50;1.00;;;;;;5073203;28;20474;-69
2021/09/06 09:46:11;;;;;;;60.77;3.20;;;23.80;1.00;;;;;;5073293;28;20490;-69
2021/09/06 09:48:38;;;;;;;60.47;3.10;;;24.20;1.00;;;;;;5073440;28;20486;-71
2021/09/06 09:51:05;;;;;;;57.97;2.67;;;24.40;1.00;;;;;;5072916;28;20530;-70
2021/09/06 09:53:33;;;;;;;58.53;3.40;;;24.60;1.00;;;;;;5073210;28;20837;-70
2021/09/06 09:55:59;;;;;;;58.13;2.60;;;24.80;1.00;;;;;;5073289;28;20440;-70
2021/09/06 09:58:28;;;;;;;58.07;2.60;;;25.30;1.00;;;;;;5074806;28;20537;-70
2021/09/06 10:00:56;;;;;;;58.80;2.60;;;26.50;1.00;;;;;;5073719;28;20474;-69
2021/09/06 10:03:25;;;;;;;58.70;3.00;;;28.30;1.00;;;;;;5072599;28;20536;-69
2021/09/06 10:05:53;;;;;;;58.17;2.97;;;29.90;1.00;;;;;;5072628;28;20437;-70
2021/09/06 10:08:21;;;;;;;58.00;2.77;;;31.40;1.00;;;;;;5072439;28;20494;-70
2021/09/06 10:10:48;;;;;;;59.33;2.63;;;32.60;1.00;;;;;;5072359;28;20958;-70
2021/09/06 10:13:17;;;;;;;57.77;2.80;;;33.50;1.00;;;;;;5072724;28;20470;-70
2021/09/06 10:15:58;;;;;;;57.37;2.33;;;33.90;1.00;;;;;;5071950;28;20443;-70
2021/09/06 10:18:25;;;;;;;57.40;2.33;;;34.60;1.00;;;;;;5072497;28;20541;-70
2021/09/06 10:20:55;;;;;;;57.70;2.63;;;35.00;1.00;;;;;;5072229;28;20982;-71
2021/09/06 10:23:22;;;;;;;58.47;2.83;;;35.50;1.00;;;;;;5072402;28;20476;-70
2021/09/06 10:25:51;;;;;;;57.70;2.80;;;36.20;1.00;;;;;;5072197;28;20452;-70
2021/09/06 10:28:18;;;;;;;57.00;2.20;;;36.80;1.00;;;;;;5072255;28;21056;-70
2021/09/06 10:30:48;;;;;;;57.63;2.60;;;37.30;1.00;;;;;;5072303;28;20455;-70
2021/09/06 10:33:29;;;;;;;57.47;2.60;;;37.50;1.00;;;;;;5072070;28;20566;-70
2021/09/06 10:36:07;;;;;;;57.30;2.93;;;37.60;1.00;;;;;;5072015;28;20447;-70
2021/09/06 10:38:39;;;;;;;58.17;3.33;;;37.70;1.00;;;;;;5072223;28;20508;-70
2021/09/06 10:41:12;;;;;;;57.97;3.47;;;37.70;1.00;;;;;;5072186;28;20469;-70
2021/09/06 10:43:47;;;;;;;56.97;3.10;;;37.50;1.00;;;;;;5071877;28;20856;-70
2021/09/06 10:46:17;;;;;;;57.30;2.47;;;37.60;1.00;;;;;;5072211;28;20532;-70
2021/09/06 10:48:45;;;;;;;57.30;2.43;;;37.80;1.00;;;;;;5072114;28;20848;-70
2021/09/06 10:51:12;;;;;;;57.50;2.40;;;38.00;1.00;;;;;;5071842;28;20813;-70
2021/09/06 10:53:39;;;;;;;57.97;3.13;;;38.20;1.00;;;;;;5071860;28;20554;-70
2021/09/06 10:56:08;;;;;;;56.90;2.20;;;38.30;1.00;;;;;;5072330;28;20531;-70
2021/09/06 10:58:35;;;;;;;56.77;2.60;;;38.30;1.00;;;;;;5072125;28;20878;-70
2021/09/06 11:01:04;;;;;;;57.57;3.20;;;38.50;1.00;;;;;;5071624;28;20454;-72
2021/09/06 11:03:36;;;;;;;57.70;3.10;;;38.60;1.00;;;;;;5071690;28;20574;-70
2021/09/06 11:06:04;;;;;;;58.57;3.37;;;38.60;1.00;;;;;;5072057;28;20440;-69
2021/09/06 11:08:33;;;;;;;57.13;3.50;;;38.70;1.00;;;;;;5071569;28;20479;-69
2021/09/06 11:11:01;;;;;;;57.17;3.00;;;38.80;1.00;;;;;;5071784;28;20538;-70
2021/09/06 11:13:34;;;;;;;57.70;3.33;;;39.30;1.00;;;;;;5071646;28;20469;-70
2021/09/06 11:16:02;;;;;;;57.70;3.13;;;39.10;1.00;;;;;;5072066;28;20436;-70
2021/09/06 11:18:32;;;;;;;58.37;3.70;;;38.80;1.00;;;;;;5071746;28;20526;-70
2021/09/06 11:21:01;;;;;;;57.63;2.77;;;38.80;1.00;;;;;;5071813;28;20808;-70
2021/09/06 11:23:33;;;;;;;57.50;2.57;;;38.90;1.00;;;;;;5071723;28;20470;-70
2021/09/06 11:25:59;;;;;;;57.20;2.47;;;38.70;1.00;;;;;;5073533;28;20501;-70
2021/09/06 11:28:27;;;;;;;57.27;3.13;;;38.60;1.00;;;;;;5075700;28;20488;-70
2021/09/06 11:30:54;;;;;;;57.33;2.40;;;38.50;1.00;;;;;;5075687;28;20819;-70
2021/09/06 11:33:21;;;;;;;56.77;2.30;;;38.70;1.00;;;;;;5075823;28;20875;-70
2021/09/06 11:35:49;;;;;;;57.83;3.13;;;39.00;1.00;;;;;;5075515;28;20490;-70
2021/09/06 11:38:18;;;;;;;57.23;3.00;;;39.20;1.00;;;;;;5075658;28;20526;-70
2021/09/06 11:40:51;;;;;;;58.10;2.67;;;39.70;1.00;;;;;;5075590;28;20451;-70
2021/09/06 11:43:18;;;;;;;56.37;2.77;;;40.10;1.00;;;;;;5075490;28;20471;-70
2021/09/06 11:45:46;;;;;;;56.60;2.60;;;40.30;1.00;;;;;;5075325;28;20896;-70
2021/09/06 11:48:13;;;;;;;57.80;2.63;;;40.30;1.00;;;;;;5075074;28;20478;-70
2021/09/06 11:50:41;;;;;;;56.47;2.33;;;40.30;1.00;;;;;;5075436;28;20526;-70
2021/09/06 11:53:09;;;;;;;57.50;2.77;;;40.30;1.00;;;;;;5075231;28;20553;-70
2021/09/06 11:55:38;;;;;;;57.00;2.40;;;40.30;1.00;;;;;;5075300;28;20443;-70
2021/09/06 11:58:09;;;;;;;57.30;2.87;;;40.40;1.00;;;;;;5075066;28;20470;-71
2021/09/06 12:00:37;;;;;;;57.60;2.90;;;40.80;1.00;;;;;;5074834;28;20449;-70
2021/09/06 12:03:05;;;;;;;56.87;3.00;;;41.30;1.00;;;;;;5074787;28;20561;-70
2021/09/06 12:05:39;;;;;;;59.37;4.37;;;41.60;1.00;;;;;;5075194;28;20828;-70
2021/09/06 12:08:11;;;;;;;57.27;2.40;;;41.80;1.00;;;;;;5074926;28;20451;-70
2021/09/06 12:10:41;;;;;;;57.27;3.20;;;41.70;1.00;;;;;;5074762;28;20454;-70
2021/09/06 12:13:10;;;;;;;58.20;2.70;;;41.30;1.00;;;;;;5074661;28;20473;-70
2021/09/06 12:15:39;;;;;;;58.13;3.40;;;40.90;1.00;;;;;;5075015;28;20549;-71
2021/09/06 12:18:11;;;;;;;56.60;3.13;;;40.80;1.00;;;;;;5074832;28;20451;-70
2021/09/06 12:20:41;;;;;;;57.10;2.63;;;40.80;1.00;;;;;;5074708;28;20445;-70
2021/09/06 12:23:10;;;;;;;56.77;2.60;;;41.00;1.00;;;;;;5074901;28;20546;-70
2021/09/06 12:25:40;;;;;;;56.83;2.63;;;41.30;1.00;;;;;;5074494;28;20474;-70
2021/09/06 12:28:11;;;;;;;57.10;2.23;;;41.70;1.00;;;;;;5074506;28;20526;-70
2021/09/06 12:30:39;;;;;;;57.27;3.03;;;42.00;1.00;;;;;;5074393;28;20506;-70
2021/09/06 12:33:07;;;;;;;57.80;2.90;;;42.00;1.00;;;;;;5074594;28;20438;-70
2021/09/06 12:35:34;;;;;;;55.90;2.80;;;41.90;1.00;;;;;;5074515;28;20439;-70
2021/09/06 12:38:01;;;;;;;56.97;2.50;;;41.70;1.00;;;;;;5073403;28;20482;-70
2021/09/06 12:40:28;;;;;;;57.43;2.63;;;41.30;1.00;;;;;;5074284;28;20491;-70
2021/09/06 12:42:56;;;;;;;56.90;2.67;;;41.20;1.00;;;;;;5074340;28;20470;-70
2021/09/06 12:45:23;;;;;;;57.20;2.80;;;40.90;1.00;;;;;;5074273;28;20461;-70
2021/09/06 12:47:50;;;;;;;56.50;3.17;;;40.20;1.00;;;;;;5074285;28;20447;-70
2021/09/06 12:50:17;;;;;;;57.67;2.97;;;39.60;1.00;;;;;;5073989;28;20449;-70